createdAt,value
2023-05-19T00:01:45.694Z,9.10
2023-05-19T00:04:14.876Z,9.00
2023-05-19T00:06:42.666Z,9.10
2023-05-19T00:09:10.345Z,8.60
2023-05-19T00:11:38.783Z,9.00
2023-05-19T00:14:07.473Z,6.90
2023-05-19T00:16:34.817Z,6.40
2023-05-19T00:19:03.670Z,7.20
2023-05-19T00:21:31.693Z,7.80
2023-05-19T00:23:59.272Z,8.50
2023-05-19T00:26:27.127Z,8.00
2023-05-19T00:29:02.335Z,7.60
2023-05-19T00:31:29.760Z,7.60
2023-05-19T00:33:57.289Z,5.50
2023-05-19T00:36:26.546Z,5.70
2023-05-19T00:38:53.803Z,6.90
2023-05-19T00:41:21.481Z,6.50
2023-05-19T00:43:48.606Z,7.10
2023-05-19T00:46:15.661Z,6.60
2023-05-19T00:48:44.873Z,6.80
2023-05-19T00:51:14.864Z,5.30
2023-05-19T00:53:42.734Z,6.10
2023-05-19T00:56:09.808Z,5.90
2023-05-19T00:58:37.548Z,6.70
2023-05-19T01:01:05.288Z,6.60
2023-05-19T01:03:35.775Z,6.20
2023-05-19T01:06:07.474Z,6.50
2023-05-19T01:08:36.364Z,4.70
2023-05-19T01:11:07.112Z,5.30
2023-05-19T01:13:35.571Z,5.70
2023-05-19T01:16:07.688Z,5.50
2023-05-19T01:18:48.321Z,5.30
2023-05-19T01:21:27.897Z,6.10
2023-05-19T01:24:03.042Z,6.30
2023-05-19T01:26:58.046Z,4.20
2023-05-19T01:29:49.966Z,4.60
2023-05-19T01:32:17.469Z,5.20
2023-05-19T01:34:45.161Z,5.60
2023-05-19T01:37:13.132Z,5.50
2023-05-19T01:39:40.383Z,5.50
2023-05-19T01:42:07.793Z,5.40
2023-05-19T01:44:36.044Z,3.70
2023-05-19T01:47:04.135Z,4.50
2023-05-19T01:49:31.297Z,4.70
2023-05-19T01:51:58.459Z,5.40
2023-05-19T01:54:25.476Z,5.60
2023-05-19T01:57:23.723Z,5.10
2023-05-19T02:00:05.708Z,5.50
2023-05-19T02:03:08.096Z,3.90
2023-05-19T02:05:51.527Z,4.80
2023-05-19T02:08:27.426Z,4.80
2023-05-19T02:11:00.896Z,5.20
2023-05-19T02:13:30.580Z,5.20
2023-05-19T02:15:59.755Z,5.70
2023-05-19T02:18:30.105Z,5.40
2023-05-19T02:20:57.323Z,4.30
2023-05-19T02:23:24.842Z,4.70
2023-05-19T02:25:51.954Z,5.30
2023-05-19T02:28:19.914Z,5.00
2023-05-19T02:30:46.989Z,5.60
2023-05-19T02:33:14.064Z,5.50
2023-05-19T02:35:43.416Z,5.80
2023-05-19T02:38:10.484Z,6.00
2023-05-19T02:40:37.940Z,3.70
2023-05-19T02:43:04.975Z,4.00
2023-05-19T02:45:31.914Z,4.30
2023-05-19T02:47:59.440Z,4.50
2023-05-19T02:50:26.487Z,4.00
2023-05-19T02:52:54.081Z,4.40
2023-05-19T02:55:21.524Z,4.60
2023-05-19T02:57:48.535Z,4.60
2023-05-19T03:00:18.249Z,2.80
2023-05-19T03:02:46.311Z,3.30
2023-05-19T03:05:14.439Z,3.30
2023-05-19T03:07:41.695Z,3.60
2023-05-19T03:10:09.140Z,3.50
2023-05-19T03:12:36.728Z,3.20
2023-05-19T03:15:04.095Z,3.60
2023-05-19T03:17:34.355Z,2.60
2023-05-19T03:20:01.915Z,3.00
2023-05-19T03:22:29.227Z,3.30
2023-05-19T03:24:56.308Z,2.90
2023-05-19T03:27:23.398Z,3.60
2023-05-19T03:29:50.897Z,3.50
2023-05-19T03:32:18.181Z,3.80
2023-05-19T03:34:46.319Z,2.70
2023-05-19T03:37:13.661Z,3.00
2023-05-19T03:39:40.871Z,3.60
2023-05-19T03:42:08.055Z,3.80
2023-05-19T03:44:35.930Z,3.30
2023-05-19T03:47:03.273Z,3.70
2023-05-19T03:49:39.418Z,4.10
2023-05-19T03:52:26.775Z,3.00
2023-05-19T03:54:58.964Z,3.50
2023-05-19T03:57:27.006Z,3.30
2023-05-19T03:59:54.163Z,4.00
2023-05-19T04:02:21.845Z,4.30
2023-05-19T04:04:49.076Z,4.40
2023-05-19T04:07:16.629Z,4.40
2023-05-19T04:09:43.635Z,4.20
2023-05-19T04:12:10.890Z,2.90
2023-05-19T04:14:38.336Z,3.00
2023-05-19T04:17:05.613Z,3.90
2023-05-19T04:19:33.761Z,4.00
2023-05-19T04:22:02.151Z,4.40
2023-05-19T04:24:29.860Z,4.50
2023-05-19T04:26:57.574Z,4.60
2023-05-19T04:29:24.560Z,4.50
2023-05-19T04:31:52.816Z,4.00
2023-05-19T04:34:20.417Z,4.70
2023-05-19T04:36:48.599Z,4.70
2023-05-19T04:39:17.009Z,6.00
2023-05-19T04:41:45.571Z,5.60
2023-05-19T04:44:13.792Z,4.50
2023-05-19T04:46:42.815Z,5.10
2023-05-19T04:49:12.674Z,5.30
2023-05-19T04:51:41.590Z,3.90
2023-05-19T04:54:10.203Z,4.00
2023-05-19T04:56:37.945Z,5.20
2023-05-19T04:59:05.209Z,5.80
2023-05-19T05:01:33.956Z,5.00
2023-05-19T05:04:04.673Z,5.50
2023-05-19T05:09:00.025Z,5.30
2023-05-19T05:11:28.262Z,4.20
2023-05-19T05:13:58.321Z,4.40
2023-05-19T05:16:26.615Z,5.00
2023-05-19T05:18:53.847Z,4.60
2023-05-19T05:21:21.181Z,5.60
2023-05-19T05:23:48.648Z,6.30
2023-05-19T05:26:18.718Z,6.70
2023-05-19T05:28:47.084Z,5.40
2023-05-19T05:31:15.228Z,5.20
2023-05-19T05:33:43.373Z,5.80
2023-05-19T05:36:10.631Z,7.10
2023-05-19T05:38:41.858Z,6.30
2023-05-19T05:41:09.076Z,8.90
2023-05-19T05:43:36.862Z,6.40
2023-05-19T05:46:04.202Z,8.70
2023-05-19T05:48:32.263Z,7.70
2023-05-19T05:50:59.673Z,5.90
2023-05-19T05:53:34.719Z,6.80
2023-05-19T05:56:02.568Z,6.90
2023-05-19T05:58:37.841Z,7.00
2023-05-19T06:01:05.564Z,7.40
2023-05-19T06:03:33.582Z,7.10
2023-05-19T06:06:04.410Z,8.20
2023-05-19T06:08:31.479Z,8.20
2023-05-19T06:10:58.822Z,6.70
2023-05-19T06:13:27.227Z,5.70
2023-05-19T06:15:54.364Z,6.30
2023-05-19T06:18:26.418Z,6.70
2023-05-19T06:20:53.516Z,7.00
2023-05-19T06:23:20.553Z,6.80
2023-05-19T06:25:47.634Z,6.60
2023-05-19T06:28:15.596Z,7.80
2023-05-19T06:30:43.626Z,7.20
2023-05-19T06:33:21.855Z,6.90
2023-05-19T06:35:49.187Z,8.50
2023-05-19T06:38:16.556Z,5.00
2023-05-19T06:40:43.957Z,6.40
2023-05-19T06:43:11.317Z,6.50
2023-05-19T06:45:55.513Z,6.00
2023-05-19T06:48:23.379Z,7.00
2023-05-19T06:50:50.990Z,6.90
2023-05-19T06:53:19.587Z,7.20
2023-05-19T06:55:57.989Z,6.80
2023-05-19T06:58:27.850Z,6.40
2023-05-19T07:00:55.568Z,7.10
2023-05-19T07:03:24.281Z,5.10
2023-05-19T07:05:51.474Z,4.90
2023-05-19T07:08:18.697Z,7.10
2023-05-19T07:10:45.790Z,6.80
2023-05-19T07:13:16.451Z,6.60
2023-05-19T07:15:44.283Z,6.20
2023-05-19T07:18:11.493Z,6.90
2023-05-19T07:20:38.667Z,6.90
2023-05-19T07:23:05.745Z,6.60
2023-05-19T07:25:33.427Z,6.80
2023-05-19T07:28:00.825Z,7.60
2023-05-19T07:30:28.560Z,6.60
2023-05-19T07:32:57.117Z,6.20
2023-05-19T07:35:24.367Z,7.30
2023-05-19T07:37:51.933Z,5.60
2023-05-19T07:40:19.181Z,6.90
2023-05-19T07:42:57.845Z,33.80
2023-05-19T07:45:25.781Z,31.20
2023-05-19T07:47:54.076Z,13.00
2023-05-19T07:50:21.290Z,10.90
2023-05-19T07:52:48.462Z,8.80
2023-05-19T07:55:15.539Z,9.70
2023-05-19T07:57:42.582Z,9.20
2023-05-19T08:00:12.136Z,8.90
2023-05-19T08:02:40.074Z,8.30
2023-05-19T08:05:09.896Z,8.60
2023-05-19T08:07:37.211Z,9.10
2023-05-19T08:10:04.706Z,8.30
2023-05-19T08:12:32.567Z,8.40
2023-05-19T08:15:01.408Z,8.50
2023-05-19T08:17:29.104Z,8.90
2023-05-19T08:19:56.859Z,8.40
2023-05-19T08:22:23.883Z,6.00
2023-05-19T08:24:51.924Z,7.50
2023-05-19T08:27:19.130Z,8.30
2023-05-19T08:29:46.561Z,8.80
2023-05-19T08:32:13.678Z,8.20
2023-05-19T08:34:41.502Z,8.40
2023-05-19T08:37:08.785Z,8.10
2023-05-19T08:39:36.940Z,8.90
2023-05-19T08:42:04.010Z,9.00
2023-05-19T08:44:31.978Z,10.70
2023-05-19T08:47:01.169Z,8.40
2023-05-19T08:49:28.565Z,8.50
2023-05-19T08:51:58.701Z,9.00
2023-05-19T08:54:26.597Z,10.30
2023-05-19T08:56:53.554Z,9.80
2023-05-19T08:59:21.819Z,10.30
2023-05-19T09:01:48.996Z,10.00
2023-05-19T09:04:16.003Z,9.30
2023-05-19T09:06:44.604Z,10.60
2023-05-19T09:09:11.832Z,9.30
2023-05-19T09:11:39.127Z,10.30
2023-05-19T09:14:06.954Z,11.50
2023-05-19T09:16:34.338Z,11.10
2023-05-19T09:19:02.094Z,11.30
2023-05-19T09:21:32.461Z,12.10
2023-05-19T09:24:05.425Z,11.70
2023-05-19T09:26:39.933Z,12.10
2023-05-19T09:29:16.500Z,10.10
2023-05-19T09:31:50.763Z,11.10
2023-05-19T09:34:18.263Z,11.10
2023-05-19T09:36:49.547Z,11.50
2023-05-19T09:39:17.170Z,12.80
2023-05-19T09:41:44.392Z,12.60
2023-05-19T09:44:22.808Z,12.70
2023-05-19T09:46:51.085Z,12.10
2023-05-19T09:49:22.097Z,13.60
2023-05-19T09:51:56.703Z,12.10
2023-05-19T09:54:24.354Z,13.20
2023-05-19T09:57:03.854Z,13.20
2023-05-19T09:59:33.477Z,12.00
2023-05-19T10:02:01.463Z,14.20
2023-05-19T10:04:29.739Z,14.00
2023-05-19T10:07:01.059Z,13.00
2023-05-19T10:09:29.142Z,13.70
2023-05-19T10:11:58.528Z,13.60
2023-05-19T10:14:26.838Z,13.90
2023-05-19T10:16:59.498Z,13.40
2023-05-19T10:19:27.783Z,13.90
2023-05-19T10:21:55.217Z,15.50
2023-05-19T10:24:22.464Z,14.50
2023-05-19T10:26:57.984Z,13.70
2023-05-19T10:29:33.561Z,15.40
2023-05-19T10:32:06.946Z,13.00
2023-05-19T10:34:34.241Z,14.30
2023-05-19T10:37:52.354Z,15.10
2023-05-19T10:40:23.190Z,13.50
2023-05-19T10:42:56.189Z,15.30
2023-05-19T10:45:24.240Z,14.30
2023-05-19T10:47:51.834Z,15.30
2023-05-19T10:50:19.066Z,15.30
2023-05-19T10:52:46.200Z,15.10
2023-05-19T10:55:17.829Z,15.10
2023-05-19T10:57:57.338Z,14.60
2023-05-19T11:00:28.102Z,14.10
2023-05-19T11:02:57.649Z,12.30
2023-05-19T11:05:31.196Z,12.90
2023-05-19T11:08:06.289Z,13.00
2023-05-19T11:10:33.772Z,20.00
2023-05-19T11:13:01.396Z,14.10
2023-05-19T11:15:29.112Z,12.20
2023-05-19T11:17:57.135Z,12.90
2023-05-19T11:20:27.650Z,11.90
2023-05-19T11:23:05.495Z,10.90
2023-05-19T11:25:41.748Z,10.80
2023-05-19T11:28:10.678Z,9.50
2023-05-19T11:30:38.160Z,10.10
2023-05-19T11:33:06.250Z,10.10
2023-05-19T11:35:35.514Z,9.90
2023-05-19T11:38:03.548Z,8.10
2023-05-19T11:40:30.766Z,7.10
2023-05-19T11:42:58.100Z,7.40
2023-05-19T11:45:28.709Z,6.30
2023-05-19T11:48:02.543Z,6.40
2023-05-19T11:50:31.533Z,6.00
2023-05-19T11:53:00.094Z,6.60
2023-05-19T11:55:27.687Z,5.40
2023-05-19T11:58:05.150Z,5.50
2023-05-19T12:00:40.714Z,6.00
2023-05-19T12:04:46.002Z,6.50
2023-05-19T12:07:13.794Z,6.30
2023-05-19T12:09:40.981Z,6.40
2023-05-19T12:12:08.458Z,5.60
2023-05-19T12:14:35.960Z,5.50
2023-05-19T12:17:24.286Z,5.70
2023-05-19T12:19:51.469Z,6.00
2023-05-19T12:22:18.604Z,6.00
2023-05-19T12:24:45.652Z,5.30
2023-05-19T12:27:29.160Z,5.30
2023-05-19T12:29:57.351Z,5.30
2023-05-19T12:32:25.721Z,5.50
2023-05-19T12:34:53.437Z,5.70
2023-05-19T12:37:20.550Z,7.10
2023-05-19T12:39:48.892Z,5.20
2023-05-19T12:42:16.081Z,5.50
2023-05-19T12:44:46.816Z,5.30
2023-05-19T12:47:15.816Z,4.90
2023-05-19T12:50:02.777Z,5.30
2023-05-19T12:52:35.365Z,5.70
2023-05-19T12:55:07.066Z,5.40
2023-05-19T12:57:36.142Z,5.70
2023-05-19T13:00:07.121Z,5.40
2023-05-19T13:02:36.231Z,5.50
2023-05-19T13:05:04.947Z,5.50
2023-05-19T13:07:32.247Z,5.80
2023-05-19T13:09:59.319Z,5.80
2023-05-19T13:12:26.529Z,5.70
2023-05-19T13:14:55.569Z,6.30
2023-05-19T13:17:22.820Z,8.60
2023-05-19T13:19:49.928Z,6.40
2023-05-19T13:22:17.147Z,6.30
2023-05-19T13:24:44.712Z,5.70
2023-05-19T13:27:11.848Z,6.00
2023-05-19T13:29:39.222Z,6.00
2023-05-19T13:32:06.526Z,6.00
2023-05-19T13:34:33.907Z,5.80
2023-05-19T13:37:01.011Z,5.80
2023-05-19T13:39:28.362Z,6.10
2023-05-19T13:41:55.357Z,6.40
2023-05-19T13:44:24.543Z,6.30
2023-05-19T13:46:52.362Z,6.30
2023-05-19T13:49:19.613Z,6.50
2023-05-19T13:51:46.640Z,5.40
2023-05-19T13:54:13.742Z,6.30
2023-05-19T13:56:40.739Z,6.30
2023-05-19T13:59:07.814Z,6.70
2023-05-19T14:01:35.142Z,6.90
2023-05-19T14:04:02.697Z,5.40
2023-05-19T14:06:30.131Z,7.40
2023-05-19T14:08:57.132Z,7.10
2023-05-19T14:11:24.286Z,6.90
2023-05-19T14:13:52.890Z,6.80
2023-05-19T14:16:22.229Z,7.20
2023-05-19T14:18:49.538Z,7.70
2023-05-19T14:21:17.162Z,7.80
2023-05-19T14:23:44.361Z,7.50
2023-05-19T14:26:11.351Z,7.60
2023-05-19T14:28:38.384Z,7.60
2023-05-19T14:31:06.232Z,8.70
2023-05-19T14:33:35.711Z,7.90
2023-05-19T14:36:03.361Z,8.60
2023-05-19T14:38:30.660Z,8.00
2023-05-19T14:40:57.949Z,8.00
2023-05-19T14:43:25.018Z,8.10
2023-05-19T14:45:52.092Z,8.00
2023-05-19T14:48:19.399Z,8.10
2023-05-19T14:50:48.151Z,9.10
2023-05-19T14:53:16.300Z,8.70
2023-05-19T14:55:43.797Z,7.90
2023-05-19T14:58:26.886Z,8.10
2023-05-19T15:00:57.834Z,8.20
2023-05-19T15:03:25.087Z,8.30
2023-05-19T15:05:52.395Z,8.50
2023-05-19T15:08:19.601Z,8.00
2023-05-19T15:10:49.944Z,8.40
2023-05-19T15:13:19.104Z,8.20
2023-05-19T15:15:46.315Z,8.00
2023-05-19T15:18:16.362Z,8.90
2023-05-19T15:20:43.799Z,8.50
2023-05-19T15:23:11.149Z,9.50
2023-05-19T15:25:38.385Z,8.80
2023-05-19T15:28:05.794Z,9.00
2023-05-19T15:30:34.089Z,9.30
2023-05-19T15:33:01.581Z,10.70
2023-05-19T15:35:28.736Z,12.10
2023-05-19T15:37:55.960Z,12.00
2023-05-19T15:40:22.996Z,10.20
2023-05-19T15:42:50.180Z,8.90
2023-05-19T15:45:17.447Z,9.70
2023-05-19T15:47:44.391Z,9.90
2023-05-19T15:50:11.802Z,9.00
2023-05-19T15:52:39.270Z,9.60
2023-05-19T15:55:07.078Z,10.40
2023-05-19T15:57:34.404Z,9.90
2023-05-19T16:00:03.147Z,9.60
2023-05-19T16:02:32.424Z,8.60
2023-05-19T16:04:59.463Z,9.70
2023-05-19T16:07:26.423Z,10.30
2023-05-19T16:09:53.521Z,9.50
2023-05-19T16:12:20.812Z,9.20
2023-05-19T16:14:47.775Z,9.50
2023-05-19T16:17:15.340Z,8.90
2023-05-19T16:19:42.497Z,10.30
2023-05-19T16:22:09.567Z,10.10
2023-05-19T16:24:37.098Z,9.90
2023-05-19T16:27:04.987Z,10.00
2023-05-19T16:29:32.739Z,9.50
2023-05-19T16:31:59.904Z,10.00
2023-05-19T16:34:28.585Z,9.60
2023-05-19T16:36:56.262Z,9.90
2023-05-19T16:39:23.256Z,9.90
2023-05-19T16:41:50.223Z,10.10
2023-05-19T16:44:18.430Z,9.40
2023-05-19T16:46:45.342Z,9.20
2023-05-19T16:49:12.378Z,10.00
2023-05-19T16:51:39.298Z,9.80
2023-05-19T16:54:06.297Z,10.10
2023-05-19T16:56:33.592Z,10.10
2023-05-19T16:59:00.931Z,10.10
2023-05-19T17:01:28.303Z,10.70
2023-05-19T17:03:55.930Z,9.80
2023-05-19T17:06:23.066Z,10.70
2023-05-19T17:08:50.802Z,11.40
2023-05-19T17:11:17.979Z,11.60
2023-05-19T17:13:46.497Z,11.90
2023-05-19T17:16:13.854Z,11.60
2023-05-19T17:18:41.053Z,11.10
2023-05-19T17:21:08.213Z,9.80
2023-05-19T17:23:35.332Z,11.40
2023-05-19T17:26:02.755Z,11.30
2023-05-19T17:28:30.123Z,12.50
2023-05-19T17:30:57.267Z,11.90
2023-05-19T17:33:26.066Z,12.00
2023-05-19T17:35:53.221Z,11.80
2023-05-19T17:38:20.181Z,13.30
2023-05-19T17:40:47.409Z,11.10
2023-05-19T17:43:14.486Z,12.10
2023-05-19T17:45:41.580Z,11.10
2023-05-19T17:48:08.818Z,12.00
2023-05-19T17:50:36.393Z,12.30
2023-05-19T17:53:03.661Z,9.80
2023-05-19T17:55:31.479Z,10.50
2023-05-19T17:57:58.785Z,11.40
2023-05-19T18:00:26.259Z,11.70
2023-05-19T18:02:53.993Z,11.50
2023-05-19T18:05:21.470Z,11.40
2023-05-19T18:07:48.738Z,12.90
2023-05-19T18:10:16.409Z,11.80
2023-05-19T18:12:43.816Z,13.40
2023-05-19T18:15:11.624Z,11.50
2023-05-19T18:17:38.930Z,11.70
2023-05-19T18:20:06.834Z,13.10
2023-05-19T18:22:34.141Z,13.80
2023-05-19T18:25:01.152Z,13.40
2023-05-19T18:27:28.345Z,10.00
2023-05-19T18:29:55.702Z,10.50
2023-05-19T18:32:22.821Z,11.30
2023-05-19T18:34:50.037Z,11.40
2023-05-19T18:37:17.512Z,12.00
2023-05-19T18:39:45.535Z,12.30
2023-05-19T18:42:12.818Z,12.90
2023-05-19T18:44:40.021Z,12.80
2023-05-19T18:47:07.250Z,12.80
2023-05-19T18:49:35.032Z,12.50
2023-05-19T18:52:02.158Z,13.30
2023-05-19T18:54:29.404Z,10.10
2023-05-19T18:56:56.482Z,9.90
2023-05-19T18:59:24.590Z,11.00
2023-05-19T19:01:54.443Z,12.10
2023-05-19T19:04:21.999Z,12.80
2023-05-19T19:06:49.728Z,12.40
2023-05-19T19:09:17.020Z,11.50
2023-05-19T19:11:44.495Z,12.30
2023-05-19T19:14:12.131Z,12.70
2023-05-19T19:16:39.276Z,13.40
2023-05-19T19:19:06.740Z,14.00
2023-05-19T19:21:34.098Z,10.80
2023-05-19T19:24:02.170Z,10.30
2023-05-19T19:26:29.454Z,12.30
2023-05-19T19:28:56.577Z,12.60
2023-05-19T19:31:23.801Z,12.60
2023-05-19T19:33:50.883Z,12.70
2023-05-19T19:36:17.869Z,11.90
2023-05-19T19:38:45.093Z,12.60
2023-05-19T19:41:12.052Z,13.20
2023-05-19T19:43:39.047Z,13.20
2023-05-19T19:46:07.287Z,9.70
2023-05-19T19:48:35.608Z,12.60
2023-05-19T19:51:02.704Z,13.50
2023-05-19T19:53:29.962Z,12.80
2023-05-19T19:56:03.805Z,12.50
2023-05-19T19:58:31.134Z,14.10
2023-05-19T20:01:02.608Z,14.00
2023-05-19T20:03:29.766Z,14.20
2023-05-19T20:05:57.122Z,14.00
2023-05-19T20:08:25.171Z,11.20
2023-05-19T20:10:52.709Z,12.40
2023-05-19T20:13:20.060Z,14.30
2023-05-19T20:15:47.362Z,13.20
2023-05-19T20:18:14.530Z,13.60
2023-05-19T20:20:41.971Z,14.20
2023-05-19T20:23:09.237Z,14.60
2023-05-19T20:25:58.473Z,15.00
2023-05-19T20:28:30.330Z,13.30
2023-05-19T20:30:57.564Z,11.20
2023-05-19T20:33:24.502Z,12.90
2023-05-19T20:35:51.578Z,13.40
2023-05-19T20:38:18.619Z,13.70
2023-05-19T20:40:46.146Z,14.80
2023-05-19T20:43:13.421Z,14.00
2023-05-19T20:45:43.419Z,15.20
2023-05-19T20:48:11.420Z,14.70
2023-05-19T20:50:39.344Z,15.70
2023-05-19T20:53:07.583Z,15.20
2023-05-19T20:55:36.296Z,11.40
2023-05-19T20:58:03.416Z,13.20
2023-05-19T21:00:30.985Z,14.20
2023-05-19T21:02:58.167Z,15.70
2023-05-19T21:05:25.352Z,14.70
2023-05-19T21:07:53.379Z,15.60
2023-05-19T21:10:20.729Z,15.50
2023-05-19T21:12:47.779Z,14.80
2023-05-19T21:15:15.152Z,12.00
2023-05-19T21:17:42.521Z,12.90
2023-05-19T21:20:10.197Z,13.20
2023-05-19T21:22:37.850Z,15.70
2023-05-19T21:25:05.525Z,15.50
2023-05-19T21:27:35.541Z,16.20
2023-05-19T21:30:02.669Z,16.70
2023-05-19T21:32:30.369Z,16.10
2023-05-19T21:34:57.601Z,12.20
2023-05-19T21:37:24.629Z,13.10
2023-05-19T21:39:52.572Z,13.80
2023-05-19T21:42:19.613Z,16.10
2023-05-19T21:44:46.901Z,17.30
2023-05-19T21:47:14.185Z,17.90
2023-05-19T21:49:41.383Z,17.60
2023-05-19T21:52:08.514Z,17.50
2023-05-19T21:54:36.237Z,14.60
2023-05-19T21:57:03.750Z,13.30
2023-05-19T21:59:30.989Z,17.00
2023-05-19T22:01:58.630Z,16.90
2023-05-19T22:04:25.931Z,17.20
2023-05-19T22:06:52.965Z,18.70
2023-05-19T22:09:19.924Z,17.40
2023-05-19T22:11:47.279Z,17.40
2023-05-19T22:14:14.430Z,14.10
2023-05-19T22:16:41.814Z,14.90
2023-05-19T22:19:10.613Z,14.40
2023-05-19T22:21:37.694Z,18.50
2023-05-19T22:24:04.928Z,18.50
2023-05-19T22:26:32.106Z,19.50
2023-05-19T22:28:59.146Z,18.60
2023-05-19T22:31:26.293Z,19.60
2023-05-19T22:33:53.288Z,13.40
2023-05-19T22:36:20.356Z,15.50
2023-05-19T22:38:48.271Z,17.60
2023-05-19T22:41:15.426Z,19.00
2023-05-19T22:43:42.542Z,19.20
2023-05-19T22:46:10.218Z,18.60
2023-05-19T22:48:37.846Z,19.40
2023-05-19T22:51:04.824Z,15.00
2023-05-19T22:53:31.955Z,16.40
2023-05-19T22:55:59.114Z,18.30
2023-05-19T22:58:26.088Z,19.20
2023-05-19T23:00:53.141Z,19.20
2023-05-19T23:03:20.706Z,19.50
2023-05-19T23:05:48.135Z,19.10
2023-05-19T23:08:15.285Z,15.00
2023-05-19T23:10:42.390Z,15.20
2023-05-19T23:13:10.284Z,19.10
2023-05-19T23:15:37.540Z,20.40
2023-05-19T23:18:07.523Z,21.30
2023-05-19T23:20:34.797Z,23.20
2023-05-19T23:23:02.055Z,23.70
2023-05-19T23:25:29.529Z,15.00
2023-05-19T23:27:56.506Z,17.40
2023-05-19T23:30:23.601Z,18.60
2023-05-19T23:32:50.953Z,19.60
2023-05-19T23:35:18.007Z,19.50
2023-05-19T23:37:45.106Z,20.80
2023-05-19T23:40:12.588Z,18.70
2023-05-19T23:42:39.947Z,19.30
2023-05-19T23:45:07.619Z,14.90
2023-05-19T23:47:34.856Z,14.40
2023-05-19T23:50:02.142Z,15.90
2023-05-19T23:52:29.647Z,16.70
2023-05-19T23:54:56.855Z,18.40
2023-05-19T23:57:24.024Z,19.40
2023-05-19T23:59:51.041Z,21.30
